hwlogo.jpg (8581 bytes)
Home Your Weather Products Services Weather On Your Site Contact
HW Version Logo
Weather Info
Your Weather (Options)
Canadian Weather
International Weather
Enter your " Place, State", US Zip Code or ICAO:  
Forecast Information Radar Information
Medicine Hat, Alberta, Canada  Lat: 50.00N, Lon: 110.72W
ICAO Used: CYXH
Current Conditions
Updated: 12:00 AM MST MON FEB 19 2018
Sun & Moon Information
Mostly Cloudy
Mostly Cloudy
Temp: -24°C
Humidity: 83%
Wind Speed: SSW 3 MPH
Barometer: 1021 mb
Dewpoint: -26°C
Heat Index: -24°C
Wind Chill: -29°C
Civil Twilight: 6:55 AM MST Moon Phase:
Waxing Crescent Moon
Sunrise: 7:28 AM MST
Sunset: 5:44 PM MST
Civil Twilight: 6:17 PM MST
Forecast for Medicine Hat, AB:
(Forecast based on TAF for )
1148 PM MST SUN FEB 18 2018
  
OVERNIGHT MORNING
Clear Mostly
Cloudy
ZoneCast:
Dated: 1148 PM MST SUN FEB 18 2018
Overnight...Clear with winds from the southwest at 6 mph.

Morning...Clear with winds from the southwest at 6 mph. Then a 30 percent chance of ice crystals. Turning mostly cloudy with winds from the southwest at 6 mph.

Original Encoded TAF:
Dated: 1148 PM MST SUN FEB 18 2018
2018/02/19 06:48
TAF CYXH 190546Z 1906/1918 22005KT P6SM SKC 
      TEMPO 1909/1915 2SM IC HZ PROB30 1911/1914 3/4SM IC BR HZ 
     FM191700 22005KT P6SM BKN040 
      RMK FCST BASED ON AUTO OBS. NXT FCST BY 191200Z